Hiyodori — JD2366 — position and weather

sailwx.info

Track history (hours):
 
Tides and Currents Weather Stations Pressure Air Temp Water Temp Dewpoint Dewpoint Depression Visibility Wind Speed Wind Dir Waves Ship Positions

Hiyodori

Last reported at 2017-Apr-27 09:47 UTC. Time now 2017-Apr-28 02:29 UTC.
Position N 35°08' E 139°43'.

Length 88 m; draft 3.6 m.

Type: Cargo ship. MMSI: 431000132.

Date/timePositionNaut miles runAvg speedWind from/ knotsBaromVisibWave heightAir tempDewpointWater temp
2017-Apr-27 09:47N 35°08' E 139°43'611.4
2017-Apr-27 09:17N 35°13' E 139°46'311.5
2017-Apr-27 09:00N 35°16' E 139°46'611.8
2017-Apr-27 08:30N 35°21' E 139°42'3 6.2
2017-Apr-27 08:00N 35°24' E 139°41'0 0.0
2017-Apr-27 07:30N 35°24' E 139°41'0 0.0
2017-Apr-27 07:00N 35°24' E 139°41'4 7.3
2017-Apr-27 06:30N 35°26' E 139°44'612.5
2017-Apr-27 06:00N 35°31' E 139°49'5 9.2
2017-Apr-27 05:30N 35°35' E 139°47'2 2.8
2017-Apr-27 04:55N 35°36' E 139°46'0 0.0
2017-Apr-27 04:25N 35°36' E 139°46'0 0.0
2017-Apr-27 03:43N 35°36' E 139°46'0 0.0
2017-Apr-27 03:25N 35°36' E 139°46'0 0.0
2017-Apr-27 02:55N 35°36' E 139°46'0 0.0
2017-Apr-27 02:25N 35°36' E 139°46'0 0.0
2017-Apr-27 01:55N 35°36' E 139°46'0 0.0
2017-Apr-27 01:19N 35°36' E 139°46'0 0.0
2017-Apr-27 00:55N 35°36' E 139°46'0 0.0
2017-Apr-27 00:19N 35°36' E 139°46'0 0.0
2017-Apr-27 00:00N 35°36' E 139°46'4 8.5
2017-Apr-26 23:30N 35°34' E 139°50'2 4.7
2017-Apr-26 23:00N 35°33' E 139°53'0 0.0
2017-Apr-26 22:24N 35°33' E 139°53'0 0.0
2017-Apr-26 22:00N 35°33' E 139°53'0 0.0
2017-Apr-26 21:30N 35°33' E 139°53'0 0.2
2017-Apr-26 21:00N 35°33' E 139°53'0 0.1
2017-Apr-26 20:27N 35°33' E 139°53'0 0.1
2017-Apr-26 19:33N 35°33' E 139°53'0 0.0
2017-Apr-26 19:30N 35°33' E 139°53'0 0.0
2017-Apr-26 19:00N 35°33' E 139°53'0 0.0
2017-Apr-26 18:27N 35°33' E 139°53'0 0.0
2017-Apr-26 17:51N 35°33' E 139°53'0 0.0
2017-Apr-26 17:27N 35°33' E 139°53'0 0.0
2017-Apr-26 17:00N 35°33' E 139°53'0 0.1
2017-Apr-26 16:27N 35°33' E 139°53'0 0.0
2017-Apr-26 16:00N 35°33' E 139°53'0 0.0
2017-Apr-26 15:30N 35°33' E 139°53'0 0.0
2017-Apr-26 15:01N 35°33' E 139°53'0 0.1
2017-Apr-26 14:30N 35°33' E 139°53'0 0.0
2017-Apr-26 13:30N 35°33' E 139°53'0 0.1
2017-Apr-26 13:00N 35°33' E 139°53'0 0.1
2017-Apr-26 12:30N 35°33' E 139°53'0 0.0
2017-Apr-26 12:00N 35°33' E 139°53'0 0.3
2017-Apr-26 11:29N 35°33' E 139°53'511.2
2017-Apr-26 11:00N 35°28' E 139°51'612.1
2017-Apr-26 10:30N 35°24' E 139°46'611.4
2017-Apr-26 10:00N 35°18' E 139°44'23 1.0
2017-Apr-25 09:58N 34°59' E 139°29'710.7
2017-Apr-25 09:20N 35°03' E 139°35'310.7
2017-Apr-25 09:00N 35°05' E 139°39'510.8
2017-Apr-25 08:30N 35°09' E 139°43'510.6
2017-Apr-25 08:00N 35°14' E 139°46'510.8
2017-Apr-25 07:30N 35°19' E 139°43'510.4
2017-Apr-25 07:00N 35°24' E 139°42'510.2
2017-Apr-25 06:30N 35°28' E 139°46'510.5
2017-Apr-25 06:00N 35°32' E 139°50'5 9.5
2017-Apr-25 05:30N 35°36' E 139°47'1 1.1
2017-Apr-25 04:52N 35°36' E 139°46'0 0.0
2017-Apr-25 04:28N 35°36' E 139°46'0 0.0
2017-Apr-25 03:49N 35°36' E 139°46'0 0.0
2017-Apr-25 03:19N 35°36' E 139°46'0 0.0
2017-Apr-25 02:55N 35°36' E 139°46'0 0.0
2017-Apr-25 02:25N 35°36' E 139°46'0 0.0
2017-Apr-25 01:55N 35°36' E 139°46'0 0.0
2017-Apr-25 01:19N 35°36' E 139°46'0 0.0
2017-Apr-25 00:37N 35°36' E 139°46'0 0.0
2017-Apr-25 00:25N 35°36' E 139°46'0 0.0
2017-Apr-24 23:46N 35°36' E 139°46'0 0.0
2017-Apr-24 23:30N 35°36' E 139°46'4 8.4
2017-Apr-24 23:00N 35°34' E 139°50'3 5.5
2017-Apr-24 22:30N 35°32' E 139°53'4 7.6
2017-Apr-24 22:00N 35°29' E 139°51'4 8.5
2017-Apr-24 21:31N 35°25' E 139°48'510.0
2017-Apr-24 21:00N 35°21' E 139°45'510.0
2017-Apr-24 20:30N 35°16' E 139°46'510.8
2017-Apr-24 20:00N 35°11' E 139°47'511.1
2017-Apr-24 19:30N 35°06' E 139°43'612.0
2017-Apr-24 19:00N 35°02' E 139°38'  
2017-Apr-22 10:38N 34°55' E 139°24'111.6
2017-Apr-22 10:30N 34°56' E 139°25'611.7
2017-Apr-22 10:01N 34°59' E 139°31'612.0
2017-Apr-22 09:29N 35°03' E 139°36'612.2
2017-Apr-22 09:00N 35°07' E 139°42'612.6
2017-Apr-22 08:31N 35°12' E 139°46'612.5
2017-Apr-22 08:01N 35°18' E 139°44'611.9
2017-Apr-22 07:31N 35°24' E 139°40'1 1.1
2017-Apr-22 06:58N 35°24' E 139°41'0 0.0
2017-Apr-22 06:28N 35°24' E 139°41'0 0.1
2017-Apr-22 05:55N 35°24' E 139°41'0 0.1
2017-Apr-22 05:28N 35°24' E 139°41'0 0.0
2017-Apr-22 05:00N 35°24' E 139°41'3 6.7
2017-Apr-22 04:30N 35°21' E 139°42'611.4
2017-Apr-22 04:00N 35°16' E 139°46'510.7
2017-Apr-22 03:30N 35°11' E 139°47'611.0
2017-Apr-22 03:00N 35°06' E 139°45'611.2
2017-Apr-22 02:31N 35°01' E 139°41'611.4
2017-Apr-22 02:00N 34°57' E 139°36'711.5
2017-Apr-22 01:22N 34°53' E 139°29'  
2017-Apr-19 17:05N 34°56' E 139°26'214.0
2017-Apr-19 16:56N 34°57' E 139°28'613.9
2017-Apr-19 16:30N 35°01' E 139°34'713.9
2017-Apr-19 16:00N 35°06' E 139°40'713.9
2017-Apr-19 15:30N 35°11' E 139°46'612.3
2017-Apr-19 15:00N 35°17' E 139°45'713.0
2017-Apr-19 14:30N 35°23' E 139°41'1 1.1
2017-Apr-19 13:29N 35°24' E 139°41'0 0.0
2017-Apr-19 12:56N 35°24' E 139°41'0 0.0
2017-Apr-19 12:29N 35°24' E 139°41'0 0.0
2017-Apr-19 11:59N 35°24' E 139°41'0 0.0
2017-Apr-19 11:29N 35°24' E 139°41'0 0.0
2017-Apr-19 10:59N 35°24' E 139°41'0 0.0
2017-Apr-19 10:29N 35°24' E 139°41'0 0.0
2017-Apr-19 09:59N 35°24' E 139°41'1 2.0
2017-Apr-19 09:30N 35°23' E 139°41'5 9.4
2017-Apr-19 09:00N 35°26' E 139°46'5 9.2
2017-Apr-19 08:30N 35°29' E 139°50'4 8.5
2017-Apr-19 08:00N 35°33' E 139°50'4 8.8
2017-Apr-19 07:31N 35°36' E 139°46'0 0.0
2017-Apr-19 06:42N 35°36' E 139°46'0 0.0
2017-Apr-19 06:30N 35°36' E 139°46'0 0.0
2017-Apr-19 06:00N 35°36' E 139°46'0 0.0
2017-Apr-19 05:30N 35°36' E 139°46'0 0.0
2017-Apr-19 05:00N 35°36' E 139°46'0 0.0
2017-Apr-19 04:30N 35°36' E 139°46'0 0.1
2017-Apr-19 04:00N 35°36' E 139°46'4 9.0
2017-Apr-19 03:30N 35°33' E 139°50'2 3.5
2017-Apr-19 02:53N 35°33' E 139°53'0 0.0
2017-Apr-19 02:24N 35°33' E 139°53'0 0.0
2017-Apr-19 02:00N 35°33' E 139°53'0 0.0
2017-Apr-19 01:30N 35°33' E 139°53'0 0.1
2017-Apr-19 01:00N 35°33' E 139°53'0 0.0
2017-Apr-19 00:30N 35°33' E 139°53'0 0.0
2017-Apr-18 23:57N 35°33' E 139°53'0 0.0
2017-Apr-18 23:24N 35°33' E 139°53'0 0.0
2017-Apr-18 23:00N 35°33' E 139°53'0 0.0
2017-Apr-18 22:30N 35°33' E 139°53'0 0.0
2017-Apr-18 22:00N 35°33' E 139°53'0 0.4
2017-Apr-18 21:30N 35°33' E 139°53'510.9
2017-Apr-18 21:01N 35°28' E 139°51'611.9
2017-Apr-18 20:31N 35°24' E 139°46'611.8
2017-Apr-18 20:01N 35°18' E 139°45'611.5
2017-Apr-18 19:31N 35°12' E 139°47'612.0
2017-Apr-18 19:01N 35°06' E 139°45'611.2
2017-Apr-18 18:30N 35°02' E 139°41'611.1
2017-Apr-18 18:01N 34°59' E 139°36'  
Track history (hours):
 
Tides and Currents Weather Stations Pressure Air Temp Water Temp Dewpoint Dewpoint Depression Visibility Wind Speed Wind Dir Waves Ship Positions

Hiyodori

Last reported at 2017-Apr-27 09:47 UTC. Time now 2017-Apr-28 02:29 UTC.
Position N 35°08' E 139°43'.

Length 88 m; draft 3.6 m.

Type: Cargo ship. MMSI: 431000132.

Date/timePositionNaut miles runAvg speedWind from/ knotsBaromVisibWave heightAir tempDewpointWater temp
2017-Apr-27 09:47N 35°08' E 139°43'611.4
2017-Apr-27 09:17N 35°13' E 139°46'311.5
2017-Apr-27 09:00N 35°16' E 139°46'611.8
2017-Apr-27 08:30N 35°21' E 139°42'3 6.2
2017-Apr-27 08:00N 35°24' E 139°41'0 0.0
2017-Apr-27 07:30N 35°24' E 139°41'0 0.0
2017-Apr-27 07:00N 35°24' E 139°41'4 7.3
2017-Apr-27 06:30N 35°26' E 139°44'612.5
2017-Apr-27 06:00N 35°31' E 139°49'5 9.2
2017-Apr-27 05:30N 35°35' E 139°47'2 2.8
2017-Apr-27 04:55N 35°36' E 139°46'0 0.0
2017-Apr-27 04:25N 35°36' E 139°46'0 0.0
2017-Apr-27 03:43N 35°36' E 139°46'0 0.0
2017-Apr-27 03:25N 35°36' E 139°46'0 0.0
2017-Apr-27 02:55N 35°36' E 139°46'0 0.0
2017-Apr-27 02:25N 35°36' E 139°46'0 0.0
2017-Apr-27 01:55N 35°36' E 139°46'0 0.0
2017-Apr-27 01:19N 35°36' E 139°46'0 0.0
2017-Apr-27 00:55N 35°36' E 139°46'0 0.0
2017-Apr-27 00:19N 35°36' E 139°46'0 0.0
2017-Apr-27 00:00N 35°36' E 139°46'4 8.5
2017-Apr-26 23:30N 35°34' E 139°50'2 4.7
2017-Apr-26 23:00N 35°33' E 139°53'0 0.0
2017-Apr-26 22:24N 35°33' E 139°53'0 0.0
2017-Apr-26 22:00N 35°33' E 139°53'0 0.0
2017-Apr-26 21:30N 35°33' E 139°53'0 0.2
2017-Apr-26 21:00N 35°33' E 139°53'0 0.1
2017-Apr-26 20:27N 35°33' E 139°53'0 0.1
2017-Apr-26 19:33N 35°33' E 139°53'0 0.0
2017-Apr-26 19:30N 35°33' E 139°53'0 0.0
2017-Apr-26 19:00N 35°33' E 139°53'0 0.0
2017-Apr-26 18:27N 35°33' E 139°53'0 0.0
2017-Apr-26 17:51N 35°33' E 139°53'0 0.0
2017-Apr-26 17:27N 35°33' E 139°53'0 0.0
2017-Apr-26 17:00N 35°33' E 139°53'0 0.1
2017-Apr-26 16:27N 35°33' E 139°53'0 0.0
2017-Apr-26 16:00N 35°33' E 139°53'0 0.0
2017-Apr-26 15:30N 35°33' E 139°53'0 0.0
2017-Apr-26 15:01N 35°33' E 139°53'0 0.1
2017-Apr-26 14:30N 35°33' E 139°53'0 0.0
2017-Apr-26 13:30N 35°33' E 139°53'0 0.1
2017-Apr-26 13:00N 35°33' E 139°53'0 0.1
2017-Apr-26 12:30N 35°33' E 139°53'0 0.0
2017-Apr-26 12:00N 35°33' E 139°53'0 0.3
2017-Apr-26 11:29N 35°33' E 139°53'511.2
2017-Apr-26 11:00N 35°28' E 139°51'612.1
2017-Apr-26 10:30N 35°24' E 139°46'611.4
2017-Apr-26 10:00N 35°18' E 139°44'23 1.0
2017-Apr-25 09:58N 34°59' E 139°29'710.7
2017-Apr-25 09:20N 35°03' E 139°35'310.7
2017-Apr-25 09:00N 35°05' E 139°39'510.8
2017-Apr-25 08:30N 35°09' E 139°43'510.6
2017-Apr-25 08:00N 35°14' E 139°46'510.8
2017-Apr-25 07:30N 35°19' E 139°43'510.4
2017-Apr-25 07:00N 35°24' E 139°42'510.2
2017-Apr-25 06:30N 35°28' E 139°46'510.5
2017-Apr-25 06:00N 35°32' E 139°50'5 9.5
2017-Apr-25 05:30N 35°36' E 139°47'1 1.1
2017-Apr-25 04:52N 35°36' E 139°46'0 0.0
2017-Apr-25 04:28N 35°36' E 139°46'0 0.0
2017-Apr-25 03:49N 35°36' E 139°46'0 0.0
2017-Apr-25 03:19N 35°36' E 139°46'0 0.0
2017-Apr-25 02:55N 35°36' E 139°46'0 0.0
2017-Apr-25 02:25N 35°36' E 139°46'0 0.0
2017-Apr-25 01:55N 35°36' E 139°46'0 0.0
2017-Apr-25 01:19N 35°36' E 139°46'0 0.0
2017-Apr-25 00:37N 35°36' E 139°46'0 0.0
2017-Apr-25 00:25N 35°36' E 139°46'0 0.0
2017-Apr-24 23:46N 35°36' E 139°46'0 0.0
2017-Apr-24 23:30N 35°36' E 139°46'4 8.4
2017-Apr-24 23:00N 35°34' E 139°50'3 5.5
2017-Apr-24 22:30N 35°32' E 139°53'4 7.6
2017-Apr-24 22:00N 35°29' E 139°51'4 8.5
2017-Apr-24 21:31N 35°25' E 139°48'510.0
2017-Apr-24 21:00N 35°21' E 139°45'510.0
2017-Apr-24 20:30N 35°16' E 139°46'510.8
2017-Apr-24 20:00N 35°11' E 139°47'511.1
2017-Apr-24 19:30N 35°06' E 139°43'612.0
2017-Apr-24 19:00N 35°02' E 139°38'  
2017-Apr-22 10:38N 34°55' E 139°24'111.6
2017-Apr-22 10:30N 34°56' E 139°25'611.7
2017-Apr-22 10:01N 34°59' E 139°31'612.0
2017-Apr-22 09:29N 35°03' E 139°36'612.2
2017-Apr-22 09:00N 35°07' E 139°42'612.6
2017-Apr-22 08:31N 35°12' E 139°46'612.5
2017-Apr-22 08:01N 35°18' E 139°44'611.9
2017-Apr-22 07:31N 35°24' E 139°40'1 1.1
2017-Apr-22 06:58N 35°24' E 139°41'0 0.0
2017-Apr-22 06:28N 35°24' E 139°41'0 0.1
2017-Apr-22 05:55N 35°24' E 139°41'0 0.1
2017-Apr-22 05:28N 35°24' E 139°41'0 0.0
2017-Apr-22 05:00N 35°24' E 139°41'3 6.7
2017-Apr-22 04:30N 35°21' E 139°42'611.4
2017-Apr-22 04:00N 35°16' E 139°46'510.7
2017-Apr-22 03:30N 35°11' E 139°47'611.0
2017-Apr-22 03:00N 35°06' E 139°45'611.2
2017-Apr-22 02:31N 35°01' E 139°41'611.4
2017-Apr-22 02:00N 34°57' E 139°36'711.5
2017-Apr-22 01:22N 34°53' E 139°29'  
2017-Apr-19 17:05N 34°56' E 139°26'214.0
2017-Apr-19 16:56N 34°57' E 139°28'613.9
2017-Apr-19 16:30N 35°01' E 139°34'713.9
2017-Apr-19 16:00N 35°06' E 139°40'713.9
2017-Apr-19 15:30N 35°11' E 139°46'612.3
2017-Apr-19 15:00N 35°17' E 139°45'713.0
2017-Apr-19 14:30N 35°23' E 139°41'1 1.1
2017-Apr-19 13:29N 35°24' E 139°41'0 0.0
2017-Apr-19 12:56N 35°24' E 139°41'0 0.0
2017-Apr-19 12:29N 35°24' E 139°41'0 0.0
2017-Apr-19 11:59N 35°24' E 139°41'0 0.0
2017-Apr-19 11:29N 35°24' E 139°41'0 0.0
2017-Apr-19 10:59N 35°24' E 139°41'0 0.0
2017-Apr-19 10:29N 35°24' E 139°41'0 0.0
2017-Apr-19 09:59N 35°24' E 139°41'1 2.0
2017-Apr-19 09:30N 35°23' E 139°41'5 9.4
2017-Apr-19 09:00N 35°26' E 139°46'5 9.2
2017-Apr-19 08:30N 35°29' E 139°50'4 8.5
2017-Apr-19 08:00N 35°33' E 139°50'4 8.8
2017-Apr-19 07:31N 35°36' E 139°46'0 0.0
2017-Apr-19 06:42N 35°36' E 139°46'0 0.0
2017-Apr-19 06:30N 35°36' E 139°46'0 0.0
2017-Apr-19 06:00N 35°36' E 139°46'0 0.0
2017-Apr-19 05:30N 35°36' E 139°46'0 0.0
2017-Apr-19 05:00N 35°36' E 139°46'0 0.0
2017-Apr-19 04:30N 35°36' E 139°46'0 0.1
2017-Apr-19 04:00N 35°36' E 139°46'4 9.0
2017-Apr-19 03:30N 35°33' E 139°50'2 3.5
2017-Apr-19 02:53N 35°33' E 139°53'0 0.0
2017-Apr-19 02:24N 35°33' E 139°53'0 0.0
2017-Apr-19 02:00N 35°33' E 139°53'0 0.0
2017-Apr-19 01:30N 35°33' E 139°53'0 0.1
2017-Apr-19 01:00N 35°33' E 139°53'0 0.0
2017-Apr-19 00:30N 35°33' E 139°53'0 0.0
2017-Apr-18 23:57N 35°33' E 139°53'0 0.0
2017-Apr-18 23:24N 35°33' E 139°53'0 0.0
2017-Apr-18 23:00N 35°33' E 139°53'0 0.0
2017-Apr-18 22:30N 35°33' E 139°53'0 0.0
2017-Apr-18 22:00N 35°33' E 139°53'0 0.4
2017-Apr-18 21:30N 35°33' E 139°53'510.9
2017-Apr-18 21:01N 35°28' E 139°51'611.9
2017-Apr-18 20:31N 35°24' E 139°46'611.8
2017-Apr-18 20:01N 35°18' E 139°45'611.5
2017-Apr-18 19:31N 35°12' E 139°47'612.0
2017-Apr-18 19:01N 35°06' E 139°45'611.2
2017-Apr-18 18:30N 35°02' E 139°41'611.1
2017-Apr-18 18:01N 34°59' E 139°36'  

Dump ship's entire track history